Time;durP1;ratioP1;P1;durP2;ratioP2;P2;SDS_P1;SDS_P2;PMS_P1;PMS_P2;Temp;Humidity;BMP_temperature;BMP_pressure;BME280_temperature;BME280_humidity;BME280_pressure;Samples;Min_cycle;Max_cycle;Signal;HPM_P1;HPM_P2
2023/02/09 00:01:15;;;;;;;48.90;29.20;;;2.00;99.90;;;;;;5063708;28;20146;-66
2023/02/09 00:03:42;;;;;;;52.75;30.35;;;2.00;99.90;;;;;;5058210;28;20143;-64
2023/02/09 00:06:13;;;;;;;52.85;30.23;;;2.00;99.90;;;;;;5064226;28;20049;-65
2023/02/09 00:08:40;;;;;;;51.20;32.08;;;2.00;99.90;;;;;;5058893;28;20128;-65
2023/02/09 00:11:09;;;;;;;47.40;27.73;;;2.00;99.90;;;;;;5062367;28;20483;-67
2023/02/09 00:13:37;;;;;;;57.75;29.75;;;2.00;99.90;;;;;;5057620;28;20049;-65
2023/02/09 00:16:04;;;;;;;46.90;28.83;;;2.00;99.90;;;;;;5062254;28;20149;-65
2023/02/09 00:18:32;;;;;;;52.50;30.00;;;1.90;99.90;;;;;;5061004;28;20044;-64
2023/02/09 00:21:03;;;;;;;51.58;29.98;;;1.90;99.90;;;;;;5064146;28;20056;-65
2023/02/09 00:23:31;;;;;;;50.95;29.05;;;2.00;99.90;;;;;;5062341;28;20466;-64
2023/02/09 00:26:03;;;;;;;59.72;31.27;;;1.90;99.90;;;;;;5052411;28;20036;-64
2023/02/09 00:28:30;;;;;;;50.40;29.50;;;2.00;99.90;;;;;;5062190;28;20057;-65
2023/02/09 00:30:57;;;;;;;49.53;28.23;;;2.00;99.90;;;;;;5063690;28;20045;-64
2023/02/09 00:33:24;;;;;;;60.30;29.80;;;2.00;99.90;;;;;;5063002;28;20139;-64
2023/02/09 00:35:51;;;;;;;53.80;30.75;;;1.90;99.90;;;;;;5061112;28;20486;-63
2023/02/09 00:38:20;;;;;;;50.33;31.05;;;2.00;99.90;;;;;;5062950;28;20405;-64
2023/02/09 00:40:47;;;;;;;45.22;27.60;;;2.00;99.90;;;;;;5054825;28;20131;-63
2023/02/09 00:43:14;;;;;;;50.60;28.27;;;2.00;99.90;;;;;;5064154;28;20127;-68
2023/02/09 00:45:41;;;;;;;49.88;31.40;;;1.90;99.90;;;;;;5062035;28;20032;-66
2023/02/09 00:48:08;;;;;;;47.65;28.67;;;1.90;99.90;;;;;;5065267;28;20358;-68
2023/02/09 00:50:34;;;;;;;52.20;31.80;;;1.90;99.90;;;;;;5058325;28;20048;-66
2023/02/09 00:53:01;;;;;;;52.47;29.27;;;1.90;99.90;;;;;;5060685;28;20371;-67
2023/02/09 00:55:28;;;;;;;52.72;29.17;;;1.90;99.90;;;;;;5060615;28;20048;-64
2023/02/09 00:57:55;;;;;;;46.75;32.13;;;1.90;99.90;;;;;;5054784;28;20544;-67
2023/02/09 01:00:22;;;;;;;47.42;30.23;;;1.90;99.90;;;;;;5061555;28;20054;-64
2023/02/09 01:02:49;;;;;;;44.83;29.50;;;1.90;99.90;;;;;;5061604;28;20072;-64
2023/02/09 01:05:16;;;;;;;55.05;33.17;;;1.90;99.90;;;;;;5056183;28;20040;-65
2023/02/09 01:07:43;;;;;;;48.97;30.63;;;1.90;99.90;;;;;;5058806;28;20544;-65
2023/02/09 01:10:10;;;;;;;49.38;30.40;;;1.90;99.90;;;;;;5056045;28;20560;-65
2023/02/09 01:12:39;;;;;;;51.83;30.80;;;1.90;99.90;;;;;;5061203;28;20052;-64
2023/02/09 01:15:08;;;;;;;53.45;29.58;;;1.90;99.90;;;;;;5058671;28;20044;-65
2023/02/09 01:17:35;;;;;;;52.03;32.03;;;1.90;99.90;;;;;;5059433;28;20135;-64
2023/02/09 01:20:04;;;;;;;51.10;30.20;;;1.90;99.90;;;;;;5061485;28;20122;-64
2023/02/09 01:22:32;;;;;;;56.92;33.42;;;1.90;99.90;;;;;;5064277;28;20046;-67
2023/02/09 01:24:59;;;;;;;53.42;30.60;;;1.90;99.90;;;;;;5062152;28;20487;-65
2023/02/09 01:27:26;;;;;;;52.22;31.33;;;1.90;99.90;;;;;;5062331;28;20631;-65
2023/02/09 01:29:53;;;;;;;52.00;29.15;;;1.90;99.90;;;;;;5056688;28;20052;-65
2023/02/09 01:32:21;;;;;;;51.67;30.58;;;1.90;99.90;;;;;;5058454;28;20080;-65
2023/02/09 01:34:52;;;;;;;48.40;30.25;;;1.90;99.90;;;;;;5057884;28;20055;-66
2023/02/09 01:37:20;;;;;;;50.78;33.75;;;1.90;99.90;;;;;;5059713;28;20047;-65
2023/02/09 01:39:47;;;;;;;55.75;30.13;;;1.90;99.90;;;;;;5059876;28;20147;-64
2023/02/09 01:42:17;;;;;;;53.13;32.60;;;1.80;99.90;;;;;;5057232;28;20049;-64
2023/02/09 01:44:44;;;;;;;52.85;31.90;;;1.90;99.90;;;;;;5058990;28;20043;-63
2023/02/09 01:47:20;;;;;;;55.45;32.55;;;1.90;99.90;;;;;;5064559;28;20055;-64
2023/02/09 01:49:48;;;;;;;59.60;30.38;;;1.90;99.90;;;;;;5058533;28;20136;-64
2023/02/09 01:52:19;;;;;;;55.78;30.92;;;1.90;99.90;;;;;;5061698;28;20218;-64
2023/02/09 01:55:09;;;;;;;57.17;32.15;;;1.90;99.90;;;;;;5064103;28;20476;-66
2023/02/09 01:57:39;;;;;;;61.78;35.15;;;1.90;99.90;;;;;;5061939;28;20493;-64
2023/02/09 02:00:10;;;;;;;61.55;33.92;;;1.80;99.90;;;;;;5037817;28;20575;-64
2023/02/09 02:02:43;;;;;;;58.45;32.30;;;1.90;99.90;;;;;;5062675;28;20126;-64
2023/02/09 02:05:10;;;;;;;54.45;32.00;;;1.80;99.90;;;;;;5058882;28;20450;-64
2023/02/09 02:07:46;;;;;;;58.05;34.33;;;1.80;99.90;;;;;;5059711;28;20079;-66
2023/02/09 02:10:13;;;;;;;57.90;33.70;;;1.80;99.90;;;;;;5060340;28;20051;-64
2023/02/09 02:12:40;;;;;;;55.85;34.13;;;1.80;99.90;;;;;;5060311;28;20060;-65
2023/02/09 02:15:10;;;;;;;56.00;31.27;;;1.80;99.90;;;;;;5061296;28;20044;-65
2023/02/09 02:17:46;;;;;;;51.53;29.27;;;1.80;99.90;;;;;;5059766;28;20044;-68
2023/02/09 02:20:33;;;;;;;60.00;35.05;;;1.80;99.90;;;;;;5059469;28;20049;-65
2023/02/09 02:23:07;;;;;;;56.00;34.72;;;1.80;99.90;;;;;;5057175;28;20065;-67
2023/02/09 02:25:50;;;;;;;56.97;32.13;;;1.80;99.90;;;;;;5059548;28;20048;-67
2023/02/09 02:28:40;;;;;;;55.70;31.65;;;1.80;99.90;;;;;;5061760;28;20051;-64
2023/02/09 02:31:19;;;;;;;;;;;1.70;99.90;;;;;;5064351;28;20047;-65
2023/02/09 02:34:14;;;;;;;56.28;31.00;;;1.70;99.90;;;;;;5056194;28;19931;-65
2023/02/09 02:37:00;;;;;;;55.30;31.70;;;1.70;99.90;;;;;;5064281;28;20045;-65
2023/02/09 02:39:44;;;;;;;60.60;32.75;;;1.70;99.90;;;;;;5060187;28;20076;-65
2023/02/09 02:42:47;;;;;;;58.47;34.38;;;1.70;99.90;;;;;;5059563;28;20062;-65
2023/02/09 02:45:38;;;;;;;58.60;33.15;;;1.80;99.90;;;;;;5056893;28;20033;-67
2023/02/09 02:48:17;;;;;;;54.67;31.30;;;1.80;99.90;;;;;;5049747;28;20048;-64
2023/02/09 02:50:55;;;;;;;50.88;30.98;;;1.80;99.90;;;;;;5060178;28;20498;-66
2023/02/09 02:53:26;;;;;;;44.35;27.73;;;1.80;99.90;;;;;;5064906;28;20052;-65
2023/02/09 02:55:58;;;;;;;49.70;29.15;;;1.80;99.90;;;;;;5061713;28;20181;-65
2023/02/09 02:58:28;;;;;;;53.25;30.63;;;1.80;99.90;;;;;;5065396;28;20068;-65
2023/02/09 03:00:59;;;;;;;54.63;28.75;;;1.80;99.90;;;;;;5062943;28;20044;-64
2023/02/09 03:03:31;;;;;;;52.35;28.90;;;1.80;99.90;;;;;;5060656;28;20049;-62
2023/02/09 03:06:01;;;;;;;46.17;28.73;;;1.80;99.90;;;;;;5062304;28;20058;-62
2023/02/09 03:08:28;;;;;;;39.65;25.88;;;1.80;99.90;;;;;;5060596;28;20584;-62
2023/02/09 03:10:55;;;;;;;46.22;28.20;;;1.90;99.90;;;;;;5067462;28;20057;-64
2023/02/09 03:13:43;;;;;;;45.85;25.20;;;1.90;99.90;;;;;;5061263;28;20502;-65
2023/02/09 03:16:41;;;;;;;39.72;26.13;;;1.90;99.90;;;;;;5060921;28;20055;-64
2023/02/09 03:20:05;;;;;;;44.17;24.85;;;1.90;99.90;;;;;;5036580;28;20098;-66
2023/02/09 03:22:43;;;;;;;36.88;23.38;;;1.80;99.90;;;;;;4995916;28;20436;-63
2023/02/09 03:25:16;;;;;;;40.28;22.35;;;1.90;99.90;;;;;;4999175;28;20076;-65
2023/02/09 03:27:49;;;;;;;40.08;22.55;;;1.80;99.90;;;;;;5035190;28;20139;-64
2023/02/09 03:30:17;;;;;;;43.90;25.70;;;1.90;99.90;;;;;;5062746;28;20045;-64
2023/02/09 03:32:46;;;;;;;43.50;24.77;;;1.80;99.90;;;;;;5065842;28;20136;-64
2023/02/09 03:35:18;;;;;;;37.70;23.35;;;1.80;99.90;;;;;;5063425;28;20055;-63
2023/02/09 03:37:45;;;;;;;40.00;24.50;;;1.80;99.90;;;;;;5058015;28;20052;-66
2023/02/09 03:40:12;;;;;;;35.03;22.67;;;1.80;99.90;;;;;;5065736;28;20384;-65
2023/02/09 03:42:39;;;;;;;39.05;22.33;;;1.80;99.90;;;;;;5062302;28;20090;-64
2023/02/09 03:45:06;;;;;;;47.65;23.42;;;1.90;99.90;;;;;;5064353;28;20414;-65
2023/02/09 03:47:34;;;;;;;34.10;22.13;;;1.90;99.90;;;;;;5063544;28;20055;-64
2023/02/09 03:50:00;;;;;;;34.17;21.52;;;1.90;99.90;;;;;;5061167;28;20109;-64
2023/02/09 03:52:29;;;;;;;40.42;24.00;;;1.90;99.90;;;;;;5058982;28;20131;-66
2023/02/09 03:54:56;;;;;;;40.13;23.13;;;1.90;99.90;;;;;;5059629;28;20102;-66
2023/02/09 03:57:23;;;;;;;32.88;21.17;;;1.90;99.90;;;;;;5063184;28;20045;-64
2023/02/09 03:59:50;;;;;;;36.70;21.80;;;1.90;99.90;;;;;;5059479;28;20478;-66
2023/02/09 04:02:17;;;;;;;36.70;19.58;;;1.90;99.90;;;;;;5066232;28;20040;-65
2023/02/09 04:04:44;;;;;;;40.28;21.58;;;1.90;99.90;;;;;;5066123;28;20048;-65
2023/02/09 04:07:11;;;;;;;36.08;19.45;;;1.90;99.90;;;;;;5063887;28;20036;-67
2023/02/09 04:09:38;;;;;;;31.88;19.45;;;1.90;99.90;;;;;;5057668;28;20087;-64
2023/02/09 04:12:05;;;;;;;31.80;18.33;;;1.90;99.90;;;;;;5056675;28;20053;-64
2023/02/09 04:14:32;;;;;;;30.48;16.23;;;1.90;99.90;;;;;;5062143;28;20052;-64
2023/02/09 04:16:58;;;;;;;29.60;18.02;;;1.90;99.90;;;;;;5062827;28;20051;-65
2023/02/09 04:19:25;;;;;;;28.95;16.40;;;1.90;99.90;;;;;;5063249;28;20048;-64
2023/02/09 04:21:52;;;;;;;28.48;18.48;;;1.90;99.90;;;;;;5061251;28;20075;-66
2023/02/09 04:24:26;;;;;;;32.00;17.85;;;1.90;99.90;;;;;;5062214;28;20101;-65
2023/02/09 04:26:53;;;;;;;32.03;16.52;;;1.90;99.90;;;;;;5059965;28;20045;-65
2023/02/09 04:29:20;;;;;;;32.88;16.13;;;1.90;99.90;;;;;;5061688;28;20056;-64
2023/02/09 04:31:47;;;;;;;26.33;14.88;;;1.90;99.90;;;;;;5058303;28;20501;-64
2023/02/09 04:34:13;;;;;;;31.35;18.52;;;1.90;99.90;;;;;;5063676;28;20064;-64
2023/02/09 04:36:40;;;;;;;30.23;16.48;;;1.90;99.90;;;;;;5059024;28;20083;-67
2023/02/09 04:39:07;;;;;;;27.67;15.27;;;1.90;99.90;;;;;;5061017;28;20051;-66
2023/02/09 04:41:34;;;;;;;30.08;15.55;;;1.90;99.90;;;;;;5063175;28;20044;-64
2023/02/09 04:44:01;;;;;;;35.95;18.27;;;1.90;99.90;;;;;;5063504;28;20045;-65
2023/02/09 04:46:28;;;;;;;29.15;15.98;;;1.90;99.90;;;;;;5064680;28;20040;-67
2023/02/09 04:48:54;;;;;;;25.30;15.70;;;1.90;99.90;;;;;;5062126;28;20063;-65
2023/02/09 04:51:21;;;;;;;27.75;16.70;;;1.90;99.90;;;;;;5060706;28;20051;-64
2023/02/09 04:53:48;;;;;;;29.13;18.17;;;1.90;99.90;;;;;;5058162;28;20075;-65
2023/02/09 04:56:16;;;;;;;32.25;16.98;;;1.90;99.90;;;;;;5061008;28;20505;-64
2023/02/09 05:01:29;;;;;;;31.98;17.98;;;1.90;99.90;;;;;;5065900;28;20040;-64
2023/02/09 05:03:56;;;;;;;34.80;18.40;;;1.90;99.90;;;;;;5059518;28;20174;-67
2023/02/09 05:06:23;;;;;;;27.00;16.90;;;1.90;99.90;;;;;;5064194;28;20754;-65
2023/02/09 05:08:50;;;;;;;32.85;17.92;;;1.90;99.90;;;;;;5061450;28;20045;-64
2023/02/09 05:11:17;;;;;;;38.95;19.45;;;1.90;99.90;;;;;;5060917;28;20056;-67
2023/02/09 05:13:45;;;;;;;23.63;15.32;;;1.90;99.90;;;;;;5055938;28;20430;-66
2023/02/09 05:16:16;;;;;;;34.15;17.23;;;1.80;99.90;;;;;;5061292;28;20063;-65
2023/02/09 05:18:43;;;;;;;29.23;16.63;;;1.90;99.90;;;;;;5065302;28;20094;-65
2023/02/09 05:21:10;;;;;;;32.42;17.90;;;1.90;99.90;;;;;;5061156;28;20049;-64
2023/02/09 05:23:37;;;;;;;26.73;16.75;;;1.90;99.90;;;;;;5061181;28;20072;-65
2023/02/09 05:26:04;;;;;;;29.35;17.33;;;1.90;99.90;;;;;;5059694;28;20051;-63
2023/02/09 05:28:31;;;;;;;29.88;16.80;;;1.90;99.90;;;;;;5061421;28;20497;-66
2023/02/09 05:30:58;;;;;;;32.38;17.60;;;1.90;99.90;;;;;;5061614;28;20143;-62
2023/02/09 05:33:25;;;;;;;29.80;17.35;;;1.90;99.90;;;;;;5065541;28;20052;-62
2023/02/09 05:35:54;;;;;;;29.27;18.25;;;1.90;99.90;;;;;;5060128;28;20048;-65
2023/02/09 05:38:21;;;;;;;34.05;18.55;;;1.90;99.90;;;;;;5062790;28;20056;-63
2023/02/09 05:40:48;;;;;;;31.85;17.17;;;1.90;99.90;;;;;;5058939;28;20068;-63
2023/02/09 05:43:16;;;;;;;32.80;18.85;;;1.90;99.90;;;;;;5058747;28;20075;-66
2023/02/09 05:45:44;;;;;;;37.17;18.65;;;1.90;99.90;;;;;;5053930;28;20048;-66
2023/02/09 05:48:11;;;;;;;35.55;19.35;;;1.90;99.90;;;;;;5056433;28;20052;-63
2023/02/09 05:50:38;;;;;;;28.05;18.10;;;1.90;99.90;;;;;;5061044;28;20056;-65
2023/02/09 05:53:06;;;;;;;31.45;18.75;;;1.80;99.90;;;;;;5061718;28;20044;-65
2023/02/09 05:55:33;;;;;;;39.00;18.98;;;1.90;99.90;;;;;;5059653;28;20406;-62
2023/02/09 05:58:00;;;;;;;33.28;18.48;;;1.90;99.90;;;;;;5057035;28;20052;-64
2023/02/09 06:00:28;;;;;;;33.83;18.00;;;1.80;99.90;;;;;;5059769;28;20049;-63
2023/02/09 06:02:55;;;;;;;32.75;19.75;;;1.80;99.90;;;;;;5058645;28;20041;-64
2023/02/09 06:05:23;;;;;;;29.20;16.67;;;1.90;99.90;;;;;;5058811;28;20087;-65
2023/02/09 06:07:50;;;;;;;33.08;17.40;;;1.80;99.90;;;;;;5059219;28;20044;-65
2023/02/09 06:10:17;;;;;;;28.50;18.30;;;1.90;99.90;;;;;;5060807;28;20051;-63
2023/02/09 06:12:44;;;;;;;29.40;17.30;;;1.90;99.90;;;;;;5060406;28;20056;-64
2023/02/09 06:15:11;;;;;;;32.72;18.98;;;1.80;99.90;;;;;;5058272;28;20041;-66
2023/02/09 06:17:38;;;;;;;26.40;16.83;;;1.80;99.90;;;;;;5057556;28;20049;-64
2023/02/09 06:20:05;;;;;;;37.83;19.30;;;1.80;99.90;;;;;;5058152;28;20049;-64
2023/02/09 06:22:32;;;;;;;29.25;16.25;;;1.80;99.90;;;;;;5064261;28;20132;-66
2023/02/09 06:24:59;;;;;;;28.02;17.88;;;1.80;99.90;;;;;;5061260;28;20078;-64
2023/02/09 06:27:26;;;;;;;26.48;17.10;;;1.80;99.90;;;;;;5060859;28;20214;-65
2023/02/09 06:29:53;;;;;;;25.77;15.70;;;1.80;99.90;;;;;;5059952;28;20317;-65
2023/02/09 06:32:20;;;;;;;28.98;17.33;;;1.80;99.90;;;;;;5058331;28;20131;-65
2023/02/09 06:34:47;;;;;;;28.02;16.27;;;1.80;99.90;;;;;;5060887;28;20052;-65
2023/02/09 06:37:13;;;;;;;30.55;17.50;;;1.80;99.90;;;;;;5055829;28;20048;-63
2023/02/09 06:39:40;;;;;;;34.83;16.25;;;1.80;99.90;;;;;;5057355;28;20044;-67
2023/02/09 06:42:07;;;;;;;32.55;17.08;;;1.80;99.90;;;;;;5055118;28;20049;-63
2023/02/09 06:44:34;;;;;;;29.55;17.70;;;1.80;99.90;;;;;;5059792;28;20511;-64
2023/02/09 06:47:01;;;;;;;36.55;15.63;;;1.80;99.90;;;;;;5057795;28;20044;-67
2023/02/09 06:49:28;;;;;;;29.67;16.80;;;1.90;99.90;;;;;;5059907;28;20048;-67
2023/02/09 06:51:55;;;;;;;26.40;15.35;;;1.90;99.90;;;;;;5057354;28;20222;-63
2023/02/09 06:54:22;;;;;;;31.33;16.52;;;1.90;99.90;;;;;;5060738;28;20059;-64
2023/02/09 06:56:49;;;;;;;23.25;15.30;;;1.80;99.90;;;;;;5060950;28;20094;-64
2023/02/09 06:59:16;;;;;;;21.85;13.40;;;1.80;99.90;;;;;;5059616;28;20052;-64
2023/02/09 07:01:42;;;;;;;24.98;13.73;;;1.90;99.90;;;;;;5060480;28;20063;-64
2023/02/09 07:04:09;;;;;;;25.48;14.82;;;1.90;99.90;;;;;;5053842;28;20044;-64
2023/02/09 07:06:36;;;;;;;33.33;16.60;;;1.90;99.90;;;;;;5060339;28;20152;-66
2023/02/09 07:09:03;;;;;;;29.85;16.30;;;1.90;99.90;;;;;;5054904;28;20053;-64
2023/02/09 07:11:30;;;;;;;28.13;14.95;;;1.90;99.90;;;;;;5059877;28;20052;-64
2023/02/09 07:13:57;;;;;;;28.00;15.43;;;1.90;99.90;;;;;;5056108;28;20044;-64
2023/02/09 07:16:24;;;;;;;26.98;16.08;;;2.00;99.90;;;;;;5055121;28;20052;-64
2023/02/09 07:18:50;;;;;;;29.45;14.48;;;2.00;99.90;;;;;;5056271;28;20094;-67
2023/02/09 07:21:20;;;;;;;27.70;15.35;;;2.00;99.90;;;;;;5060223;28;20045;-64
2023/02/09 07:23:47;;;;;;;32.30;14.40;;;2.00;99.90;;;;;;5053861;28;20048;-64
2023/02/09 07:26:16;;;;;;;24.55;14.05;;;2.00;99.90;;;;;;5062577;28;20406;-64
2023/02/09 07:28:43;;;;;;;24.77;14.18;;;2.00;99.90;;;;;;5059283;28;20056;-65
2023/02/09 07:31:12;;;;;;;27.25;16.73;;;2.00;99.90;;;;;;5058572;28;20045;-69
2023/02/09 07:33:39;;;;;;;25.90;13.25;;;2.00;99.90;;;;;;5055158;28;20055;-65
2023/02/09 07:36:09;;;;;;;26.85;13.90;;;2.00;99.90;;;;;;5058961;28;20470;-64
2023/02/09 07:38:37;;;;;;;24.42;15.63;;;2.00;99.90;;;;;;5063706;28;20048;-64
2023/02/09 07:41:05;;;;;;;28.90;15.77;;;2.00;99.90;;;;;;5058218;28;20061;-64
2023/02/09 07:43:33;;;;;;;22.92;14.20;;;2.10;99.90;;;;;;5059948;28;20424;-64
2023/02/09 07:46:02;;;;;;;27.70;13.80;;;2.10;99.90;;;;;;5061168;28;20060;-64
2023/02/09 07:48:29;;;;;;;24.77;15.38;;;2.10;99.90;;;;;;5061344;28;20127;-64
2023/02/09 07:50:57;;;;;;;21.88;13.52;;;2.10;99.90;;;;;;5059156;28;20260;-64
2023/02/09 07:53:24;;;;;;;26.35;14.85;;;2.10;99.90;;;;;;5063189;28;20513;-65
2023/02/09 07:55:51;;;;;;;29.10;15.25;;;2.10;99.90;;;;;;5062662;28;20444;-64
2023/02/09 07:58:20;;;;;;;24.48;14.95;;;2.20;99.90;;;;;;5066828;28;20040;-64
2023/02/09 08:00:48;;;;;;;30.17;14.98;;;2.10;99.90;;;;;;5065943;28;20084;-64
2023/02/09 08:03:19;;;;;;;24.10;14.00;;;2.20;99.90;;;;;;5063183;28;20083;-63
2023/02/09 08:06:20;;;;;;;22.90;14.15;;;2.20;99.90;;;;;;5062713;28;20076;-64
2023/02/09 08:08:52;;;;;;;23.23;13.48;;;2.20;99.90;;;;;;5043095;28;20433;-63
2023/02/09 08:11:46;;;;;;;32.55;15.07;;;2.20;99.90;;;;;;5060384;28;20151;-64
2023/02/09 08:14:20;;;;;;;24.15;13.73;;;2.20;99.90;;;;;;5061416;28;20051;-66
2023/02/09 08:16:50;;;;;;;25.63;15.88;;;2.30;99.90;;;;;;5061775;28;20051;-66
2023/02/09 08:19:22;;;;;;;23.63;14.13;;;2.30;99.90;;;;;;5064767;28;20143;-65
2023/02/09 08:21:49;;;;;;;25.30;14.48;;;2.30;99.90;;;;;;5056775;28;20137;-65
2023/02/09 08:24:19;;;;;;;26.35;14.38;;;2.30;99.90;;;;;;5058903;28;20049;-64
2023/02/09 08:26:46;;;;;;;22.97;12.67;;;2.30;99.90;;;;;;5059591;28;20077;-64
2023/02/09 08:29:13;;;;;;;31.73;15.80;;;2.30;99.90;;;;;;5064936;28;20060;-64
2023/02/09 08:31:40;;;;;;;27.17;15.02;;;2.40;99.90;;;;;;5056035;28;20073;-63
2023/02/09 08:34:07;;;;;;;23.17;14.38;;;2.30;99.90;;;;;;5061983;28;20055;-64
2023/02/09 08:36:36;;;;;;;31.77;15.98;;;2.40;99.90;;;;;;5059375;28;20068;-64
2023/02/09 08:39:04;;;;;;;26.20;15.07;;;2.40;99.90;;;;;;5059188;28;20414;-64
2023/02/09 08:41:32;;;;;;;28.77;14.57;;;2.40;99.90;;;;;;5061099;28;20075;-65
2023/02/09 08:43:59;;;;;;;23.25;13.32;;;2.40;99.90;;;;;;5060174;28;20047;-64
2023/02/09 08:46:26;;;;;;;28.38;16.98;;;2.40;99.90;;;;;;5063147;28;20048;-64
2023/02/09 08:48:53;;;;;;;19.95;13.13;;;2.40;99.90;;;;;;5065353;28;20128;-65
2023/02/09 08:51:20;;;;;;;26.50;14.43;;;2.40;99.90;;;;;;5064763;28;20055;-64
2023/02/09 08:53:50;;;;;;;30.88;15.13;;;2.50;99.90;;;;;;5062318;28;20385;-66
2023/02/09 08:56:19;;;;;;;30.67;15.52;;;2.40;99.90;;;;;;5061962;28;20057;-64
2023/02/09 08:58:47;;;;;;;28.77;16.50;;;2.50;99.90;;;;;;5061351;28;20044;-65
2023/02/09 09:01:14;;;;;;;23.30;13.10;;;2.50;99.90;;;;;;5061620;28;20722;-64
2023/02/09 09:03:41;;;;;;;29.52;14.88;;;2.50;99.90;;;;;;5062511;28;20048;-64
2023/02/09 09:06:10;;;;;;;27.05;14.73;;;2.50;99.90;;;;;;5057144;28;20109;-64
2023/02/09 09:08:39;;;;;;;24.00;13.90;;;2.60;99.90;;;;;;5061383;28;20582;-64
2023/02/09 09:11:09;;;;;;;31.27;15.70;;;2.60;99.90;;;;;;5057135;28;20399;-65
2023/02/09 09:13:35;;;;;;;25.58;14.68;;;2.60;99.90;;;;;;5060308;28;20076;-65
2023/02/09 09:16:02;;;;;;;25.35;16.35;;;2.60;99.90;;;;;;5059365;28;20078;-64
2023/02/09 09:18:31;;;;;;;22.50;14.65;;;2.70;99.90;;;;;;5062229;28;20041;-64
2023/02/09 09:20:58;;;;;;;29.35;14.93;;;2.70;99.90;;;;;;5060679;28;20093;-65
2023/02/09 09:23:25;;;;;;;31.27;15.57;;;2.70;99.90;;;;;;5062375;28;20139;-64
2023/02/09 09:25:52;;;;;;;25.75;15.57;;;2.70;99.90;;;;;;5057381;28;20037;-64
2023/02/09 09:28:19;;;;;;;27.67;15.60;;;2.70;99.90;;;;;;5058704;28;20053;-63
2023/02/09 09:30:46;;;;;;;27.60;16.00;;;2.70;99.90;;;;;;5058819;28;20486;-63
2023/02/09 09:33:13;;;;;;;30.95;14.93;;;2.70;99.90;;;;;;5058891;28;20102;-64
2023/02/09 09:35:40;;;;;;;24.75;14.65;;;2.70;99.90;;;;;;5062253;28;20530;-66
2023/02/09 09:38:07;;;;;;;24.08;14.38;;;2.70;99.90;;;;;;5061121;28;20087;-65
2023/02/09 09:40:39;;;;;;;29.83;17.45;;;2.70;99.90;;;;;;5059587;28;20094;-64
2023/02/09 09:43:33;;;;;;;23.85;13.95;;;2.70;99.90;;;;;;5058951;28;20429;-64
2023/02/09 09:46:01;;;;;;;20.70;13.90;;;2.70;99.90;;;;;;5058772;28;20044;-64
2023/02/09 09:48:43;;;;;;;35.60;15.05;;;2.70;99.90;;;;;;5064634;28;20156;-64
2023/02/09 09:51:38;;;;;;;24.25;13.95;;;2.70;99.90;;;;;;5060850;28;20124;-64
2023/02/09 09:54:16;;;;;;;19.52;13.38;;;2.80;99.90;;;;;;5059454;28;20052;-64
2023/02/09 09:56:43;;;;;;;24.35;13.95;;;2.80;99.90;;;;;;5060501;28;20456;-65
2023/02/09 09:59:16;;;;;;;25.85;14.48;;;2.80;99.90;;;;;;5059427;28;20041;-64
2023/02/09 10:01:43;;;;;;;28.52;14.15;;;2.80;99.90;;;;;;5059477;28;20417;-64
2023/02/09 10:04:13;;;;;;;23.55;13.13;;;2.90;99.90;;;;;;5061895;28;20062;-65
2023/02/09 10:06:45;;;;;;;28.33;14.30;;;2.90;99.90;;;;;;5064891;28;20052;-65
2023/02/09 10:09:28;;;;;;;28.30;15.00;;;3.00;99.90;;;;;;5057983;28;20058;-66
2023/02/09 10:12:08;;;;;;;24.30;13.00;;;3.00;99.90;;;;;;5055684;28;20048;-65
2023/02/09 10:14:34;;;;;;;25.17;14.13;;;3.20;99.90;;;;;;5056235;28;20048;-63
2023/02/09 10:17:01;;;;;;;23.55;15.48;;;3.20;99.90;;;;;;5060712;28;20060;-64
2023/02/09 10:19:29;;;;;;;18.77;12.70;;;3.30;99.90;;;;;;5058889;28;20041;-64
2023/02/09 10:21:56;;;;;;;23.42;13.25;;;3.30;99.90;;;;;;5058401;28;20127;-66
2023/02/09 10:24:31;;;;;;;23.30;13.30;;;3.40;99.90;;;;;;5061285;28;20048;-63
2023/02/09 10:27:44;;;;;;;19.90;12.55;;;3.40;99.90;;;;;;5051447;28;20040;-63
2023/02/09 10:30:27;;;;;;;22.25;14.00;;;3.30;99.90;;;;;;5011391;28;20456;-67
2023/02/09 10:32:58;;;;;;;24.15;14.45;;;3.30;99.90;;;;;;5018444;28;20045;-64
2023/02/09 10:35:31;;;;;;;20.27;14.15;;;3.40;99.90;;;;;;5045063;28;20055;-63
2023/02/09 10:38:02;;;;;;;28.15;14.63;;;3.40;99.90;;;;;;5057120;28;20068;-64
2023/02/09 10:40:31;;;;;;;;;;;3.40;99.90;;;;;;5064115;28;20048;-64
2023/02/09 10:43:00;;;;;;;26.33;13.18;;;3.40;99.90;;;;;;5061199;28;19920;-64
2023/02/09 10:45:45;;;;;;;23.63;12.30;;;3.40;99.90;;;;;;5062131;28;20050;-63
2023/02/09 10:48:13;;;;;;;25.38;13.00;;;3.40;99.90;;;;;;5055240;28;20434;-64
2023/02/09 10:51:10;;;;;;;31.08;15.18;;;3.50;99.90;;;;;;5055869;28;20044;-64
2023/02/09 10:53:41;;;;;;;25.60;15.02;;;3.50;99.90;;;;;;5048476;28;20057;-65
2023/02/09 10:56:20;;;;;;;26.45;14.60;;;3.50;99.90;;;;;;5059242;28;20138;-64
2023/02/09 10:59:02;;;;;;;27.95;15.77;;;3.50;99.90;;;;;;5060490;28;20040;-65
2023/02/09 11:01:42;;;;;;;26.08;14.68;;;3.50;99.90;;;;;;5061226;28;20508;-64
2023/02/09 11:04:14;;;;;;;27.80;14.10;;;3.50;99.90;;;;;;5055179;28;20152;-64
2023/02/09 11:07:04;;;;;;;29.75;16.15;;;3.50;99.90;;;;;;5059419;28;20567;-66
2023/02/09 11:09:43;;;;;;;24.42;14.57;;;3.50;99.90;;;;;;5060090;28;20044;-65
2023/02/09 11:12:11;;;;;;;35.10;15.80;;;3.40;99.90;;;;;;5059079;28;20056;-64
2023/02/09 11:14:41;;;;;;;31.42;15.77;;;3.40;99.90;;;;;;5061394;28;20152;-64
2023/02/09 11:17:36;;;;;;;22.63;15.65;;;3.40;99.90;;;;;;5054809;28;20051;-64
2023/02/09 11:20:51;;;;;;;20.60;14.07;;;3.30;99.90;;;;;;5047968;28;20052;-64
2023/02/09 11:23:48;;;;;;;31.90;16.17;;;3.30;99.90;;;;;;5021683;28;20160;-65
2023/02/09 11:26:35;;;;;;;29.77;16.45;;;3.30;99.90;;;;;;5060255;28;20068;-64
2023/02/09 11:29:16;;;;;;;26.70;17.17;;;3.30;99.90;;;;;;5063918;28;20052;-65
2023/02/09 11:32:09;;;;;;;27.00;16.30;;;3.30;99.90;;;;;;5064832;28;20118;-65
2023/02/09 11:34:39;;;;;;;28.50;15.70;;;3.30;99.90;;;;;;5062028;28;20044;-66
2023/02/09 11:37:24;;;;;;;24.95;16.25;;;3.30;99.90;;;;;;5065114;28;20055;-64
2023/02/09 11:40:09;;;;;;;27.33;16.42;;;3.30;99.90;;;;;;5065232;28;20072;-64
2023/02/09 11:42:42;;;;;;;27.92;15.80;;;3.20;99.90;;;;;;5042416;28;20239;-66
2023/02/09 11:45:32;;;;;;;27.00;16.42;;;3.20;99.90;;;;;;5061464;28;20048;-63
2023/02/09 11:48:02;;;;;;;31.08;17.83;;;3.20;99.90;;;;;;5062473;28;20051;-67
2023/02/09 11:50:35;;;;;;;32.78;18.52;;;3.20;99.90;;;;;;5059509;28;20048;-64
2023/02/09 11:53:13;;;;;;;35.05;18.63;;;3.20;99.90;;;;;;5064206;28;20143;-65
2023/02/09 11:55:52;;;;;;;30.83;15.48;;;3.20;99.90;;;;;;5063765;28;20044;-65
2023/02/09 11:58:31;;;;;;;32.20;16.58;;;3.10;99.90;;;;;;5061173;28;20048;-64
2023/02/09 12:01:04;;;;;;;33.03;19.75;;;3.10;99.90;;;;;;5063868;28;20131;-64
2023/02/09 12:04:07;;;;;;;31.45;17.35;;;3.10;99.90;;;;;;5062146;28;20044;-64
2023/02/09 12:07:03;;;;;;;34.05;17.38;;;3.10;99.90;;;;;;5063213;28;20047;-64
2023/02/09 12:09:42;;;;;;;30.08;18.13;;;3.10;99.90;;;;;;5062038;28;20554;-65
2023/02/09 12:12:36;;;;;;;31.65;16.95;;;3.10;99.90;;;;;;5064430;28;20047;-64
2023/02/09 12:15:37;;;;;;;33.45;16.45;;;3.10;99.90;;;;;;5062075;28;20661;-65
2023/02/09 12:18:18;;;;;;;33.55;15.85;;;3.10;99.90;;;;;;5060470;28;20532;-65
2023/02/09 12:20:50;;;;;;;35.35;16.25;;;3.10;99.90;;;;;;5058333;28;20056;-65
2023/02/09 12:23:33;;;;;;;34.60;18.02;;;3.10;99.90;;;;;;5057758;28;20044;-64
2023/02/09 12:26:15;;;;;;;33.97;16.23;;;3.00;99.90;;;;;;5055471;28;20414;-63
2023/02/09 12:28:52;;;;;;;28.77;16.92;;;3.00;99.90;;;;;;5055519;28;20565;-65
2023/02/09 12:31:24;;;;;;;28.45;17.38;;;3.00;99.90;;;;;;5055819;28;20072;-64
2023/02/09 12:33:56;;;;;;;28.90;16.30;;;3.10;99.90;;;;;;5060762;28;20036;-64
2023/02/09 12:36:28;;;;;;;31.15;17.67;;;3.10;99.90;;;;;;5062052;28;20052;-65
2023/02/09 12:39:21;;;;;;;35.42;18.27;;;3.00;99.90;;;;;;5064106;28;20135;-64
2023/02/09 12:41:49;;;;;;;35.45;17.35;;;3.00;99.90;;;;;;5061194;28;20090;-65
2023/02/09 12:44:17;;;;;;;31.02;18.77;;;3.00;99.90;;;;;;5063080;28;20524;-64
2023/02/09 12:46:46;;;;;;;31.70;17.95;;;3.00;99.90;;;;;;5059271;28;20500;-64
2023/02/09 12:49:13;;;;;;;33.37;18.17;;;3.00;99.90;;;;;;5061044;28;20060;-64
2023/02/09 12:51:49;;;;;;;31.10;18.77;;;2.90;99.90;;;;;;5060275;28;20463;-65
2023/02/09 12:54:40;;;;;;;35.38;17.38;;;3.00;99.90;;;;;;5060616;28;20087;-65
2023/02/09 12:57:17;;;;;;;31.75;17.48;;;3.00;99.90;;;;;;5060442;28;20060;-63
2023/02/09 13:02:36;;;;;;;35.50;18.17;;;3.00;99.90;;;;;;5057183;28;20554;-64
2023/02/09 13:05:07;;;;;;;32.92;17.20;;;2.90;99.90;;;;;;5064697;28;20045;-64
2023/02/09 13:07:58;;;;;;;30.48;16.95;;;2.90;99.90;;;;;;5060837;28;20131;-63